createdAt,value
2023-04-21T00:00:55.136Z,15.50
2023-04-21T00:03:28.015Z,15.50
2023-04-21T00:05:58.826Z,15.50
2023-04-21T00:08:28.847Z,15.50
2023-04-21T00:10:58.233Z,15.50
2023-04-21T00:13:25.676Z,15.50
2023-04-21T00:15:55.253Z,15.40
2023-04-21T00:18:25.320Z,15.40
2023-04-21T00:20:55.279Z,15.40
2023-04-21T00:23:22.704Z,15.40
2023-04-21T00:25:50.091Z,15.40
2023-04-21T00:28:17.360Z,15.40
2023-04-21T00:30:47.183Z,15.40
2023-04-21T00:33:14.499Z,15.30
2023-04-21T00:35:41.742Z,15.30
2023-04-21T00:38:09.298Z,15.30
2023-04-21T00:40:36.540Z,15.30
2023-04-21T00:43:07.456Z,15.30
2023-04-21T00:45:37.380Z,15.30
2023-04-21T00:48:04.888Z,15.30
2023-04-21T00:50:33.169Z,15.20
2023-04-21T00:53:00.732Z,15.20
2023-04-21T00:55:29.040Z,15.20
2023-04-21T00:57:56.721Z,15.20
2023-04-21T01:00:24.483Z,15.10
2023-04-21T01:02:52.074Z,15.20
2023-04-21T01:05:19.500Z,15.10
2023-04-21T01:07:46.943Z,15.10
2023-04-21T01:10:14.507Z,15.00
2023-04-21T01:12:49.145Z,15.00
2023-04-21T01:15:17.964Z,15.00
2023-04-21T01:17:47.682Z,15.00
2023-04-21T01:20:18.395Z,15.00
2023-04-21T01:22:45.788Z,14.90
2023-04-21T01:25:17.584Z,14.90
2023-04-21T01:27:44.929Z,14.90
2023-04-21T01:30:12.323Z,14.90
2023-04-21T01:32:40.097Z,14.90
2023-04-21T01:35:07.784Z,14.90
2023-04-21T01:37:35.484Z,14.90
2023-04-21T01:40:09.146Z,14.80
2023-04-21T01:42:43.490Z,14.80
2023-04-21T01:45:11.595Z,14.80
2023-04-21T01:47:39.006Z,14.80
2023-04-21T01:50:07.538Z,14.80
2023-04-21T01:52:34.826Z,14.80
2023-04-21T01:55:04.948Z,14.70
2023-04-21T01:57:34.557Z,14.70
2023-04-21T02:00:02.391Z,14.70
2023-04-21T02:02:29.804Z,14.70
2023-04-21T02:04:59.481Z,14.60
2023-04-21T02:07:29.007Z,14.60
2023-04-21T02:09:56.533Z,14.60
2023-04-21T02:12:23.836Z,14.60
2023-04-21T02:14:51.113Z,14.60
2023-04-21T02:17:21.251Z,14.50
2023-04-21T02:19:48.607Z,14.50
2023-04-21T02:22:18.147Z,14.40
2023-04-21T02:24:45.466Z,14.40
2023-04-21T02:27:17.567Z,14.40
2023-04-21T02:29:44.813Z,14.40
2023-04-21T02:32:24.993Z,14.40
2023-04-21T02:34:53.326Z,14.40
2023-04-21T02:37:21.157Z,14.40
2023-04-21T02:39:48.537Z,14.40
2023-04-21T02:42:18.238Z,14.30
2023-04-21T02:44:50.233Z,14.30
2023-04-21T02:47:17.548Z,14.20
2023-04-21T02:49:45.075Z,14.20
2023-04-21T02:52:12.334Z,14.20
2023-04-21T02:54:39.672Z,14.20
2023-04-21T02:57:07.247Z,14.20
2023-04-21T02:59:36.905Z,14.10
2023-04-21T03:02:04.266Z,14.10
2023-04-21T03:04:34.261Z,14.10
2023-04-21T03:07:04.275Z,14.10
2023-04-21T03:09:31.642Z,14.20
2023-04-21T03:11:59.348Z,14.10
2023-04-21T03:14:26.914Z,14.10
2023-04-21T03:16:54.170Z,14.10
2023-04-21T03:19:21.786Z,14.10
2023-04-21T03:21:49.256Z,14.10
2023-04-21T03:24:19.663Z,14.10
2023-04-21T03:26:47.074Z,14.10
2023-04-21T03:29:14.637Z,14.10
2023-04-21T03:31:41.864Z,14.10
2023-04-21T03:34:09.203Z,14.00
2023-04-21T03:36:36.508Z,14.00
2023-04-21T03:39:13.158Z,14.00
2023-04-21T03:41:46.278Z,14.00
2023-04-21T03:44:13.829Z,14.00
2023-04-21T03:46:41.056Z,14.00
2023-04-21T03:49:08.414Z,13.90
2023-04-21T03:51:37.963Z,13.90
2023-04-21T03:54:05.388Z,13.90
2023-04-21T03:56:32.700Z,13.90
2023-04-21T03:58:59.997Z,13.90
2023-04-21T04:01:27.472Z,13.80
2023-04-21T04:03:55.293Z,13.80
2023-04-21T04:06:24.843Z,13.80
2023-04-21T04:08:52.166Z,13.80
2023-04-21T04:11:19.465Z,13.70
2023-04-21T04:13:49.078Z,13.70
2023-04-21T04:16:18.971Z,13.70
2023-04-21T04:18:46.288Z,13.70
2023-04-21T04:21:15.779Z,13.70
2023-04-21T04:23:44.376Z,13.70
2023-04-21T04:26:11.669Z,13.60
2023-04-21T04:28:38.917Z,13.60
2023-04-21T04:31:06.291Z,13.60
2023-04-21T04:33:36.201Z,13.60
2023-04-21T04:36:06.485Z,13.60
2023-04-21T04:38:35.588Z,13.60
2023-04-21T04:41:03.284Z,13.60
2023-04-21T04:43:33.574Z,13.60
2023-04-21T04:46:01.492Z,13.60
2023-04-21T04:48:31.465Z,13.60
2023-04-21T04:50:58.740Z,13.60
2023-04-21T04:53:28.494Z,13.60
2023-04-21T04:55:57.551Z,13.60
2023-04-21T04:58:24.937Z,13.60
2023-04-21T05:00:52.280Z,13.60
2023-04-21T05:03:19.736Z,13.60
2023-04-21T05:05:47.258Z,13.60
2023-04-21T05:08:17.833Z,13.60
2023-04-21T05:10:47.776Z,13.60
2023-04-21T05:13:17.667Z,13.60
2023-04-21T05:15:47.130Z,13.60
2023-04-21T05:18:14.462Z,13.60
2023-04-21T05:20:42.614Z,13.60
2023-04-21T05:23:12.069Z,13.60
2023-04-21T05:25:42.212Z,13.60
2023-04-21T05:28:09.600Z,13.60
2023-04-21T05:30:36.963Z,13.60
2023-04-21T05:33:04.346Z,13.60
2023-04-21T05:35:31.774Z,13.60
2023-04-21T05:38:01.560Z,13.60
2023-04-21T05:40:28.825Z,13.60
2023-04-21T05:42:56.049Z,13.70
2023-04-21T05:45:23.401Z,13.70
2023-04-21T05:47:51.147Z,13.70
2023-04-21T05:50:18.628Z,13.80
2023-04-21T05:52:48.376Z,13.80
2023-04-21T05:55:15.625Z,13.80
2023-04-21T05:57:42.939Z,13.90
2023-04-21T06:00:11.027Z,14.00
2023-04-21T06:02:38.558Z,14.00
2023-04-21T06:05:06.461Z,14.10
2023-04-21T06:07:37.129Z,14.10
2023-04-21T06:10:04.898Z,14.20
2023-04-21T06:12:32.209Z,14.40
2023-04-21T06:14:59.534Z,14.50
2023-04-21T06:17:29.306Z,14.70
2023-04-21T06:19:58.774Z,14.90
2023-04-21T06:22:27.296Z,15.20
2023-04-21T06:24:58.333Z,15.50
2023-04-21T06:27:25.974Z,15.70
2023-04-21T06:29:56.614Z,15.90
2023-04-21T06:32:26.147Z,16.00
2023-04-21T06:34:53.445Z,16.20
2023-04-21T06:37:20.682Z,16.30
2023-04-21T06:39:47.946Z,16.40
2023-04-21T06:42:15.268Z,16.50
2023-04-21T06:44:42.600Z,16.60
2023-04-21T06:47:09.927Z,16.70
2023-04-21T06:49:40.269Z,16.70
2023-04-21T06:52:07.510Z,16.80
2023-04-21T06:54:39.283Z,16.90
2023-04-21T06:57:06.748Z,16.90
2023-04-21T06:59:36.347Z,17.00
2023-04-21T07:02:03.688Z,17.00
2023-04-21T07:04:32.369Z,17.10
2023-04-21T07:07:02.421Z,17.20
2023-04-21T07:09:34.052Z,17.30
2023-04-21T07:12:03.027Z,17.40
2023-04-21T07:14:32.667Z,17.40
2023-04-21T07:17:02.254Z,17.50
2023-04-21T07:19:29.669Z,17.60
2023-04-21T07:21:57.122Z,17.70
2023-04-21T07:24:24.382Z,17.70
2023-04-21T07:26:51.621Z,17.80
2023-04-21T07:29:19.047Z,17.80
2023-04-21T07:31:48.658Z,17.90
2023-04-21T07:34:18.311Z,17.90
2023-04-21T07:36:45.642Z,18.00
2023-04-21T07:39:13.020Z,18.10
2023-04-21T07:41:40.432Z,18.20
2023-04-21T07:44:07.658Z,18.20
2023-04-21T07:46:35.303Z,18.30
2023-04-21T07:49:05.199Z,18.40
2023-04-21T07:51:32.734Z,18.40
2023-04-21T07:54:00.012Z,18.50
2023-04-21T07:56:27.424Z,18.60
2023-04-21T07:58:54.969Z,18.70
2023-04-21T08:01:23.733Z,18.70
2023-04-21T08:03:53.140Z,18.80
2023-04-21T08:06:21.342Z,18.80
2023-04-21T08:08:48.797Z,18.90
2023-04-21T08:11:16.171Z,19.00
2023-04-21T08:13:43.441Z,19.00
2023-04-21T08:16:10.799Z,19.10
2023-04-21T08:18:38.165Z,19.10
2023-04-21T08:21:05.589Z,19.20
2023-04-21T08:23:34.940Z,19.20
2023-04-21T08:26:05.580Z,19.30
2023-04-21T08:28:32.835Z,19.40
2023-04-21T08:31:02.096Z,19.50
2023-04-21T08:33:29.489Z,19.60
2023-04-21T08:36:05.536Z,19.70
2023-04-21T08:38:47.283Z,19.90
2023-04-21T08:41:23.862Z,20.00
2023-04-21T08:43:53.628Z,20.10
2023-04-21T08:46:23.824Z,20.20
2023-04-21T08:48:52.243Z,20.30
2023-04-21T08:51:28.141Z,20.30
2023-04-21T08:53:55.826Z,20.30
2023-04-21T08:56:25.945Z,20.30
2023-04-21T08:58:54.030Z,20.30
2023-04-21T09:01:21.644Z,20.30
2023-04-21T09:03:51.471Z,20.30
2023-04-21T09:06:21.668Z,20.30
2023-04-21T09:08:56.464Z,20.30
2023-04-21T09:11:23.960Z,20.40
2023-04-21T09:13:51.286Z,20.40
2023-04-21T09:16:23.075Z,20.40
2023-04-21T09:18:51.661Z,20.50
2023-04-21T09:21:20.459Z,20.50
2023-04-21T09:23:51.623Z,20.60
2023-04-21T09:26:22.665Z,20.60
2023-04-21T09:28:51.342Z,20.70
2023-04-21T09:31:29.312Z,20.70
2023-04-21T09:34:00.160Z,20.70
2023-04-21T09:36:32.165Z,20.70
2023-04-21T09:41:35.059Z,20.70
2023-04-21T09:44:05.210Z,20.70
2023-04-21T09:46:37.088Z,20.70
2023-04-21T09:49:06.198Z,20.70
2023-04-21T09:54:28.327Z,20.80
2023-04-21T09:56:58.933Z,20.80
2023-04-21T09:59:39.788Z,20.90
2023-04-21T10:02:09.821Z,21.00
2023-04-21T10:04:38.668Z,21.10
2023-04-21T10:07:07.135Z,21.10
2023-04-21T10:09:45.402Z,21.20
2023-04-21T10:12:13.969Z,21.20
2023-04-21T10:14:41.497Z,21.30
2023-04-21T10:17:10.613Z,21.40
2023-04-21T10:19:48.462Z,21.50
2023-04-21T10:22:27.872Z,21.60
2023-04-21T10:24:57.017Z,21.70
2023-04-21T10:27:43.262Z,21.80
2023-04-21T10:30:24.181Z,21.90
2023-04-21T10:33:03.490Z,22.00
2023-04-21T10:36:01.023Z,22.10
2023-04-21T10:38:56.615Z,22.10
2023-04-21T10:41:28.262Z,22.20
2023-04-21T10:43:59.581Z,22.30
2023-04-21T10:46:36.601Z,22.40
2023-04-21T10:49:12.829Z,22.40
2023-04-21T10:52:07.253Z,22.50
2023-04-21T10:54:46.436Z,22.50
2023-04-21T10:57:18.859Z,22.60
2023-04-21T10:59:47.571Z,22.70
2023-04-21T11:02:18.757Z,22.80
2023-04-21T11:04:50.839Z,22.80
2023-04-21T11:07:23.641Z,22.80
2023-04-21T11:10:04.967Z,22.80
2023-04-21T11:12:34.934Z,22.90
2023-04-21T11:15:07.492Z,22.90
2023-04-21T11:17:36.239Z,23.00
2023-04-21T11:20:04.717Z,23.10
2023-04-21T11:22:38.422Z,23.10
2023-04-21T11:25:06.300Z,23.20
2023-04-21T11:27:33.679Z,23.20
2023-04-21T11:30:04.176Z,23.30
2023-04-21T11:32:31.552Z,23.40
2023-04-21T11:34:58.987Z,23.40
2023-04-21T11:37:28.813Z,23.50
2023-04-21T11:40:01.803Z,23.50
2023-04-21T11:42:29.200Z,23.60
2023-04-21T11:44:57.530Z,23.60
2023-04-21T11:47:26.801Z,23.60
2023-04-21T11:49:56.258Z,23.60
2023-04-21T11:52:41.305Z,23.60
2023-04-21T11:55:16.275Z,23.60
2023-04-21T11:57:46.425Z,23.60
2023-04-21T12:00:16.765Z,23.60
2023-04-21T12:02:44.494Z,23.70
2023-04-21T12:05:15.369Z,23.70
2023-04-21T12:07:44.738Z,23.60
2023-04-21T12:10:17.955Z,23.70
2023-04-21T12:12:48.233Z,23.70
2023-04-21T12:15:23.182Z,23.70
2023-04-21T12:17:55.472Z,23.70
2023-04-21T12:20:24.581Z,23.70
2023-04-21T12:22:54.597Z,23.70
2023-04-21T12:25:22.051Z,23.70
2023-04-21T12:27:49.853Z,23.70
2023-04-21T12:30:17.349Z,23.70
2023-04-21T12:32:44.820Z,23.70
2023-04-21T12:35:12.113Z,23.70
2023-04-21T12:37:41.822Z,23.70
2023-04-21T12:40:11.892Z,23.70
2023-04-21T12:42:39.203Z,23.80
2023-04-21T12:45:07.214Z,23.80
2023-04-21T12:47:36.785Z,23.80
2023-04-21T12:50:06.884Z,23.90
2023-04-21T12:52:34.243Z,24.00
2023-04-21T12:55:04.681Z,24.00
2023-04-21T12:57:32.024Z,24.00
2023-04-21T13:00:02.512Z,24.10
2023-04-21T13:02:37.243Z,24.10
2023-04-21T13:05:07.446Z,24.20
2023-04-21T13:07:34.789Z,24.20
2023-04-21T13:10:06.637Z,24.20
2023-04-21T13:12:34.304Z,24.20
2023-04-21T13:15:01.648Z,24.20
2023-04-21T13:17:31.580Z,24.20
2023-04-21T13:19:58.856Z,24.30
2023-04-21T13:22:28.693Z,24.40
2023-04-21T13:24:58.146Z,24.40
2023-04-21T13:27:25.581Z,24.40
2023-04-21T13:29:55.616Z,24.50
2023-04-21T13:32:23.123Z,24.50
2023-04-21T13:34:53.891Z,24.60
2023-04-21T13:37:21.309Z,24.50
2023-04-21T13:39:51.087Z,24.50
2023-04-21T13:42:20.728Z,24.50
2023-04-21T13:44:50.259Z,24.40
2023-04-21T13:47:17.662Z,24.40
2023-04-21T13:49:45.915Z,24.30
2023-04-21T13:52:13.173Z,24.20
2023-04-21T13:54:42.718Z,24.10
2023-04-21T13:57:10.017Z,24.00
2023-04-21T13:59:39.909Z,24.00
2023-04-21T14:02:09.964Z,23.90
2023-04-21T14:04:37.841Z,23.80
2023-04-21T14:07:08.132Z,23.80
2023-04-21T14:09:37.854Z,23.70
2023-04-21T14:12:07.793Z,23.70
2023-04-21T14:14:38.666Z,23.60
2023-04-21T14:17:09.016Z,23.60
2023-04-21T14:19:36.861Z,23.50
2023-04-21T14:22:04.373Z,23.50
2023-04-21T14:24:32.371Z,23.40
2023-04-21T14:26:59.788Z,23.40
2023-04-21T14:29:29.959Z,23.40
2023-04-21T14:31:59.604Z,23.30
2023-04-21T14:34:27.066Z,23.30
2023-04-21T14:36:57.239Z,23.30
2023-04-21T14:39:24.583Z,23.20
2023-04-21T14:41:51.993Z,23.20
2023-04-21T14:44:19.396Z,23.20
2023-04-21T14:46:57.075Z,23.20
2023-04-21T14:49:29.169Z,23.20
2023-04-21T14:51:58.955Z,23.20
2023-04-21T14:54:28.475Z,23.20
2023-04-21T14:57:14.876Z,23.20
2023-04-21T14:59:47.030Z,23.20
2023-04-21T15:02:14.675Z,23.20
2023-04-21T15:04:44.739Z,23.10
2023-04-21T15:07:12.572Z,23.10
2023-04-21T15:09:39.924Z,23.10
2023-04-21T15:12:07.609Z,23.10
2023-04-21T15:14:34.994Z,23.10
2023-04-21T15:17:02.285Z,23.00
2023-04-21T15:19:32.120Z,23.00
2023-04-21T15:21:59.582Z,23.00
2023-04-21T15:24:26.856Z,22.90
2023-04-21T15:26:57.254Z,22.90
2023-04-21T15:29:24.598Z,22.90
2023-04-21T15:31:51.962Z,22.90
2023-04-21T15:34:19.262Z,22.90
2023-04-21T15:36:48.760Z,22.90
2023-04-21T15:39:16.200Z,22.90
2023-04-21T15:41:43.512Z,22.90
2023-04-21T15:44:11.108Z,22.80
2023-04-21T15:46:38.395Z,22.80
2023-04-21T15:49:05.816Z,22.80
2023-04-21T15:51:37.196Z,22.80
2023-04-21T15:54:04.545Z,22.80
2023-04-21T15:56:31.812Z,22.80
2023-04-21T15:59:03.806Z,22.80
2023-04-21T16:01:36.779Z,22.80
2023-04-21T16:04:05.581Z,22.70
2023-04-21T16:06:33.284Z,22.70
2023-04-21T16:09:03.456Z,22.70
2023-04-21T16:11:30.761Z,22.60
2023-04-21T16:14:00.438Z,22.60
2023-04-21T16:16:30.162Z,22.60
2023-04-21T16:18:57.476Z,22.50
2023-04-21T16:21:25.518Z,22.50
2023-04-21T16:23:55.240Z,22.50
2023-04-21T16:26:22.995Z,22.50
2023-04-21T16:28:54.163Z,22.40
2023-04-21T16:31:21.758Z,22.40
2023-04-21T16:33:52.691Z,22.40
2023-04-21T16:36:21.315Z,22.30
2023-04-21T16:38:48.706Z,22.30
2023-04-21T16:41:21.309Z,22.20
2023-04-21T16:43:48.775Z,22.20
2023-04-21T16:46:16.374Z,22.10
2023-04-21T16:48:43.873Z,22.10
2023-04-21T16:51:11.349Z,22.10
2023-04-21T16:53:42.075Z,22.10
2023-04-21T16:56:09.837Z,22.00
2023-04-21T16:58:39.632Z,22.00
2023-04-21T17:01:07.646Z,22.00
2023-04-21T17:03:35.406Z,21.90
2023-04-21T17:06:04.939Z,21.90
2023-04-21T17:08:34.480Z,21.90
2023-04-21T17:11:03.983Z,21.80
2023-04-21T17:13:35.467Z,21.80
2023-04-21T17:16:02.784Z,21.70
2023-04-21T17:18:30.570Z,21.70
2023-04-21T17:20:57.885Z,21.70
2023-04-21T17:23:25.114Z,21.60
2023-04-21T17:25:52.388Z,21.60
2023-04-21T17:28:19.650Z,21.60
2023-04-21T17:30:46.893Z,21.50
2023-04-21T17:33:17.174Z,21.50
2023-04-21T17:35:59.943Z,21.40
2023-04-21T17:38:32.354Z,21.40
2023-04-21T17:40:59.941Z,21.30
2023-04-21T17:43:27.340Z,21.30
2023-04-21T17:45:54.629Z,21.30
2023-04-21T17:48:21.953Z,21.20
2023-04-21T17:50:49.396Z,21.20
2023-04-21T17:53:17.424Z,21.20
2023-04-21T17:55:44.942Z,21.10
2023-04-21T17:58:12.592Z,21.10
2023-04-21T18:00:40.088Z,21.00
2023-04-21T18:03:07.607Z,21.00
2023-04-21T18:05:35.629Z,20.90
2023-04-21T18:08:03.071Z,20.90
2023-04-21T18:10:30.560Z,20.90
2023-04-21T18:12:58.306Z,20.80
2023-04-21T18:15:28.033Z,20.80
2023-04-21T18:18:02.200Z,20.80
2023-04-21T18:20:32.155Z,20.70
2023-04-21T18:23:01.777Z,20.70
2023-04-21T18:25:41.408Z,20.60
2023-04-21T18:28:11.127Z,20.60
2023-04-21T18:30:42.245Z,20.60
2023-04-21T18:33:12.646Z,20.60
2023-04-21T18:35:41.269Z,20.50
2023-04-21T18:38:11.879Z,20.50
2023-04-21T18:40:40.849Z,20.50
2023-04-21T18:43:09.853Z,20.40
2023-04-21T18:45:38.797Z,20.40
2023-04-21T18:48:06.206Z,20.30
2023-04-21T18:50:35.255Z,20.30
2023-04-21T18:53:04.741Z,20.30
2023-04-21T18:55:33.494Z,20.30
2023-04-21T18:58:03.460Z,20.20
2023-04-21T19:00:32.195Z,20.20
2023-04-21T19:03:02.770Z,20.20
2023-04-21T19:05:31.739Z,20.10
2023-04-21T19:07:59.170Z,20.10
2023-04-21T19:10:29.807Z,20.10
2023-04-21T19:12:59.335Z,20.10
2023-04-21T19:15:26.654Z,20.10
2023-04-21T19:17:56.390Z,20.00
2023-04-21T19:20:23.716Z,20.00
2023-04-21T19:22:53.808Z,20.00
2023-04-21T19:25:23.479Z,20.00
2023-04-21T19:27:51.619Z,19.90
2023-04-21T19:30:19.114Z,19.90
2023-04-21T19:32:48.773Z,19.90
2023-04-21T19:35:20.919Z,19.90
2023-04-21T19:37:50.675Z,19.80
2023-04-21T19:40:18.844Z,19.80
2023-04-21T19:42:46.194Z,19.70
2023-04-21T19:45:13.599Z,19.70
2023-04-21T19:47:40.906Z,19.70
2023-04-21T19:50:09.041Z,19.60
2023-04-21T19:52:36.318Z,19.60
2023-04-21T19:55:04.753Z,19.60
2023-04-21T19:57:32.022Z,19.50
2023-04-21T20:00:01.701Z,19.50
2023-04-21T20:02:29.132Z,19.50
2023-04-21T20:04:56.674Z,19.50
2023-04-21T20:07:24.925Z,19.40
2023-04-21T20:09:54.562Z,19.40
2023-04-21T20:12:24.619Z,19.40
2023-04-21T20:14:53.715Z,19.40
2023-04-21T20:17:21.096Z,19.30
2023-04-21T20:19:48.993Z,19.30
2023-04-21T20:22:16.367Z,19.20
2023-04-21T20:24:44.022Z,19.30
2023-04-21T20:27:11.420Z,19.20
2023-04-21T20:29:39.053Z,19.20
2023-04-21T20:32:06.773Z,19.10
2023-04-21T20:34:36.489Z,19.10
2023-04-21T20:37:05.262Z,19.10
2023-04-21T20:39:32.747Z,19.00
2023-04-21T20:42:12.563Z,19.00
2023-04-21T20:44:42.507Z,19.00
2023-04-21T20:47:11.615Z,19.00
2023-04-21T20:49:42.747Z,18.90
2023-04-21T20:52:10.501Z,18.90
2023-04-21T20:54:38.295Z,18.90
2023-04-21T20:57:10.662Z,18.80
2023-04-21T20:59:40.784Z,18.80
2023-04-21T21:02:08.527Z,18.70
2023-04-21T21:04:37.997Z,18.70
2023-04-21T21:07:07.732Z,18.70
2023-04-21T21:09:35.523Z,18.60
2023-04-21T21:12:02.912Z,18.70
2023-04-21T21:14:30.161Z,18.60
2023-04-21T21:16:57.643Z,18.50
2023-04-21T21:19:25.063Z,18.50
2023-04-21T21:21:52.320Z,18.40
2023-04-21T21:24:22.050Z,18.50
2023-04-21T21:26:49.330Z,18.40
2023-04-21T21:29:21.587Z,18.40
2023-04-21T21:31:51.090Z,18.30
2023-04-21T21:34:18.430Z,18.30
2023-04-21T21:36:45.882Z,18.30
2023-04-21T21:39:13.189Z,18.30
2023-04-21T21:41:40.397Z,18.30
2023-04-21T21:44:07.929Z,18.30
2023-04-21T21:46:37.711Z,18.30
2023-04-21T21:49:07.810Z,18.20
2023-04-21T21:51:35.112Z,18.20
2023-04-21T21:54:06.501Z,18.20
2023-04-21T21:56:36.709Z,18.20
2023-04-21T21:59:08.968Z,18.20
2023-04-21T22:01:36.294Z,18.20
2023-04-21T22:04:03.794Z,18.10
2023-04-21T22:06:32.634Z,18.10
2023-04-21T22:09:04.997Z,18.10
2023-04-21T22:11:32.524Z,18.10
2023-04-21T22:14:10.993Z,18.00
2023-04-21T22:16:46.216Z,18.00
2023-04-21T22:19:13.559Z,18.00
2023-04-21T22:21:40.903Z,17.90
2023-04-21T22:24:08.359Z,17.90
2023-04-21T22:26:36.376Z,17.80
2023-04-21T22:29:06.225Z,17.90
2023-04-21T22:31:36.747Z,17.80
2023-04-21T22:34:06.855Z,17.80
2023-04-21T22:36:34.226Z,17.80
2023-04-21T22:39:06.298Z,17.80
2023-04-21T22:41:33.510Z,17.80
2023-04-21T22:44:00.850Z,17.80
2023-04-21T22:46:32.044Z,17.70
2023-04-21T22:49:03.255Z,17.70
2023-04-21T22:51:32.228Z,17.70
2023-04-21T22:54:02.989Z,17.70
2023-04-21T22:56:31.218Z,17.70
2023-04-21T22:58:58.563Z,17.70
2023-04-21T23:01:25.881Z,17.60
2023-04-21T23:03:57.850Z,17.60
2023-04-21T23:06:28.378Z,17.50
2023-04-21T23:08:55.683Z,17.50
2023-04-21T23:11:22.940Z,17.50
2023-04-21T23:13:53.340Z,17.40
2023-04-21T23:16:26.221Z,17.40
2023-04-21T23:18:55.665Z,17.30
2023-04-21T23:21:22.974Z,17.30
2023-04-21T23:23:52.873Z,17.30
2023-04-21T23:26:20.298Z,17.20
2023-04-21T23:28:47.601Z,17.20
2023-04-21T23:31:14.915Z,17.10
2023-04-21T23:33:42.175Z,17.10
2023-04-21T23:36:09.423Z,17.10
2023-04-21T23:38:38.859Z,17.00
2023-04-21T23:41:06.282Z,17.00
2023-04-21T23:43:34.627Z,16.90
2023-04-21T23:46:02.026Z,16.90
2023-04-21T23:48:29.301Z,16.90
2023-04-21T23:50:56.677Z,16.80
2023-04-21T23:53:23.959Z,16.80
2023-04-21T23:55:51.414Z,16.70
2023-04-21T23:58:18.775Z,16.70
